N41PC KAVX-KTRM
Flight info
| Callsign | N41PC |
|---|---|
| Flight time | 0h 38m |
| Altitude | 11500 |
| Route | SXC OCN JLI TRM |
| Aircraft | PC12/L-SDFGRWY/S |
Departure
| Time | 2026-04-25 00:26 |
|---|---|
| Airport | Catalina Airport (KAVX) |
Arrival
| Time | 2026-04-25 01:05 |
|---|---|
| Airport | Jacqueline Cochran Regional Airport (KTRM) |
| Time | Latitude | Longitude | Altitude | Speed | Heading |
|---|---|---|---|---|---|
| 2026-04-25 00:12 | 33.40390 | -118.41514 | 1594 ft | 0 kts | 326° |
| 2026-04-25 00:22 | 33.40395 | -118.41512 | 1594 ft | 5 kts | 34° |
| 2026-04-25 00:23 | 33.40446 | -118.41505 | 1593 ft | 9 kts | 352° |
| 2026-04-25 00:23 | 33.40503 | -118.41492 | 1588 ft | 6 kts | 40° |
| 2026-04-25 00:23 | 33.40526 | -118.41462 | 1585 ft | 5 kts | 54° |
| 2026-04-25 00:23 | 33.40553 | -118.41417 | 1581 ft | 14 kts | 53° |
| 2026-04-25 00:24 | 33.40595 | -118.41345 | 1575 ft | 9 kts | 55° |
| 2026-04-25 00:24 | 33.40655 | -118.41244 | 1566 ft | 17 kts | 54° |
| 2026-04-25 00:24 | 33.40705 | -118.41161 | 1558 ft | 8 kts | 53° |
| 2026-04-25 00:24 | 33.40710 | -118.41153 | 1558 ft | 0 kts | 51° |
| 2026-04-25 00:25 | 33.40711 | -118.41152 | 1558 ft | 1 kts | 51° |
| 2026-04-25 00:25 | 33.40737 | -118.41147 | 1557 ft | 4 kts | 325° |
| 2026-04-25 00:25 | 33.40734 | -118.41181 | 1558 ft | 8 kts | 234° |
| 2026-04-25 00:26 | 33.40611 | -118.41389 | 1578 ft | 57 kts | 234° |
| 2026-04-25 00:26 | 33.40310 | -118.41914 | 1694 ft | 88 kts | 235° |
| 2026-04-25 00:26 | 33.39899 | -118.42601 | 2055 ft | 116 kts | 233° |
| 2026-04-25 00:26 | 33.39348 | -118.43386 | 2724 ft | 124 kts | 232° |
| 2026-04-25 00:27 | 33.38990 | -118.44304 | 3372 ft | 124 kts | 277° |
| 2026-04-25 00:27 | 33.39610 | -118.44949 | 4035 ft | 132 kts | 343° |
| 2026-04-25 00:27 | 33.40596 | -118.44876 | 4453 ft | 162 kts | 22° |
| 2026-04-25 00:27 | 33.41402 | -118.43960 | 5053 ft | 168 kts | 47° |
| 2026-04-25 00:28 | 33.42078 | -118.42833 | 5781 ft | 164 kts | 52° |
| 2026-04-25 00:28 | 33.42620 | -118.41627 | 6460 ft | 166 kts | 66° |
| 2026-04-25 00:28 | 33.42760 | -118.40279 | 7063 ft | 166 kts | 110° |
| 2026-04-25 00:28 | 33.42266 | -118.39035 | 7670 ft | 169 kts | 119° |
| 2026-04-25 00:29 | 33.41740 | -118.37756 | 8297 ft | 171 kts | 119° |
| 2026-04-25 00:29 | 33.41213 | -118.36472 | 8999 ft | 173 kts | 119° |
| 2026-04-25 00:29 | 33.40686 | -118.35169 | 9669 ft | 176 kts | 119° |
| 2026-04-25 00:29 | 33.40154 | -118.33830 | 10298 ft | 180 kts | 119° |
| 2026-04-25 00:30 | 33.39618 | -118.32460 | 10923 ft | 184 kts | 119° |
| 2026-04-25 00:30 | 33.39061 | -118.31018 | 11383 ft | 201 kts | 119° |
| 2026-04-25 00:30 | 33.38433 | -118.29409 | 11513 ft | 233 kts | 119° |
| 2026-04-25 00:30 | 33.37698 | -118.27558 | 11516 ft | 259 kts | 119° |
| 2026-04-25 00:31 | 33.36892 | -118.25553 | 11512 ft | 274 kts | 119° |
| 2026-04-25 00:31 | 33.36050 | -118.23469 | 11505 ft | 281 kts | 119° |
| 2026-04-25 00:31 | 33.35170 | -118.21362 | 11503 ft | 284 kts | 119° |
| 2026-04-25 00:31 | 33.34436 | -118.19158 | 11487 ft | 288 kts | 108° |
| 2026-04-25 00:32 | 33.34074 | -118.16798 | 11488 ft | 290 kts | 98° |
| 2026-04-25 00:32 | 33.33877 | -118.14390 | 11489 ft | 290 kts | 97° |
| 2026-04-25 00:32 | 33.33613 | -118.12002 | 11481 ft | 290 kts | 101° |
| 2026-04-25 00:32 | 33.33266 | -118.09629 | 11482 ft | 290 kts | 102° |
| 2026-04-25 00:33 | 33.32930 | -118.07251 | 11484 ft | 290 kts | 101° |
| 2026-04-25 00:33 | 33.32621 | -118.04866 | 11484 ft | 290 kts | 101° |
| 2026-04-25 00:33 | 33.32310 | -118.02481 | 11485 ft | 290 kts | 101° |
| 2026-04-25 00:33 | 33.31991 | -118.00102 | 11485 ft | 291 kts | 101° |
| 2026-04-25 00:34 | 33.31671 | -117.97714 | 11482 ft | 291 kts | 101° |
| 2026-04-25 00:34 | 33.31351 | -117.95324 | 11483 ft | 290 kts | 101° |
| 2026-04-25 00:34 | 33.31033 | -117.92947 | 11482 ft | 290 kts | 101° |
| 2026-04-25 00:34 | 33.30717 | -117.90591 | 11482 ft | 290 kts | 101° |
| 2026-04-25 00:35 | 33.30393 | -117.88180 | 11482 ft | 290 kts | 101° |
| 2026-04-25 00:35 | 33.30072 | -117.85796 | 11482 ft | 290 kts | 101° |
| 2026-04-25 00:35 | 33.29756 | -117.83448 | 11483 ft | 290 kts | 101° |
| 2026-04-25 00:35 | 33.29435 | -117.81065 | 11488 ft | 290 kts | 101° |
| 2026-04-25 00:36 | 33.29113 | -117.78685 | 11487 ft | 290 kts | 101° |
| 2026-04-25 00:36 | 33.28790 | -117.76300 | 11487 ft | 290 kts | 101° |
| 2026-04-25 00:36 | 33.28466 | -117.73911 | 11487 ft | 290 kts | 101° |
| 2026-04-25 00:36 | 33.28142 | -117.71524 | 11487 ft | 290 kts | 101° |
| 2026-04-25 00:37 | 33.27818 | -117.69136 | 11489 ft | 290 kts | 101° |
| 2026-04-25 00:37 | 33.27493 | -117.66753 | 11489 ft | 290 kts | 101° |
| 2026-04-25 00:37 | 33.27169 | -117.64374 | 11489 ft | 291 kts | 101° |
| 2026-04-25 00:37 | 33.26843 | -117.61988 | 11489 ft | 291 kts | 101° |
| 2026-04-25 00:38 | 33.26517 | -117.59606 | 11488 ft | 291 kts | 101° |
| 2026-04-25 00:38 | 33.26191 | -117.57221 | 11483 ft | 291 kts | 101° |
| 2026-04-25 00:38 | 33.25865 | -117.54842 | 11482 ft | 290 kts | 101° |
| 2026-04-25 00:38 | 33.25541 | -117.52487 | 11481 ft | 290 kts | 101° |
| 2026-04-25 00:39 | 33.25214 | -117.50110 | 11480 ft | 290 kts | 101° |
| 2026-04-25 00:39 | 33.24886 | -117.47731 | 11480 ft | 290 kts | 101° |
| 2026-04-25 00:39 | 33.24558 | -117.45350 | 11480 ft | 290 kts | 101° |
| 2026-04-25 00:39 | 33.24229 | -117.42967 | 11480 ft | 291 kts | 101° |
| 2026-04-25 00:40 | 33.23934 | -117.40581 | 11479 ft | 291 kts | 99° |
| 2026-04-25 00:40 | 33.23659 | -117.38185 | 11480 ft | 291 kts | 100° |
| 2026-04-25 00:40 | 33.23363 | -117.35790 | 11480 ft | 291 kts | 100° |
| 2026-04-25 00:40 | 33.23077 | -117.33396 | 11480 ft | 291 kts | 99° |
| 2026-04-25 00:41 | 33.22798 | -117.30996 | 11481 ft | 291 kts | 99° |
| 2026-04-25 00:41 | 33.22516 | -117.28599 | 11481 ft | 292 kts | 100° |
| 2026-04-25 00:41 | 33.22232 | -117.26199 | 11480 ft | 291 kts | 100° |
| 2026-04-25 00:41 | 33.21948 | -117.23806 | 11481 ft | 291 kts | 100° |
| 2026-04-25 00:42 | 33.21665 | -117.21412 | 11481 ft | 291 kts | 100° |
| 2026-04-25 00:42 | 33.21380 | -117.19017 | 11482 ft | 291 kts | 100° |
| 2026-04-25 00:42 | 33.21094 | -117.16612 | 11485 ft | 292 kts | 100° |
| 2026-04-25 00:42 | 33.20808 | -117.14212 | 11486 ft | 293 kts | 99° |
| 2026-04-25 00:43 | 33.20520 | -117.11799 | 11487 ft | 293 kts | 99° |
| 2026-04-25 00:43 | 33.20232 | -117.09389 | 11471 ft | 293 kts | 99° |
| 2026-04-25 00:43 | 33.19943 | -117.06974 | 11474 ft | 294 kts | 100° |
| 2026-04-25 00:43 | 33.19653 | -117.04562 | 11469 ft | 292 kts | 100° |
| 2026-04-25 00:44 | 33.19365 | -117.02160 | 11473 ft | 292 kts | 100° |
| 2026-04-25 00:44 | 33.19076 | -116.99761 | 11474 ft | 292 kts | 100° |
| 2026-04-25 00:44 | 33.18790 | -116.97390 | 11459 ft | 293 kts | 100° |
| 2026-04-25 00:44 | 33.18499 | -116.94976 | 11459 ft | 293 kts | 100° |
| 2026-04-25 00:45 | 33.18207 | -116.92566 | 11460 ft | 293 kts | 100° |
| 2026-04-25 00:45 | 33.17915 | -116.90156 | 11467 ft | 293 kts | 100° |
| 2026-04-25 00:45 | 33.17623 | -116.87753 | 11459 ft | 293 kts | 100° |
| 2026-04-25 00:45 | 33.17336 | -116.85385 | 11457 ft | 292 kts | 100° |
| 2026-04-25 00:46 | 33.17039 | -116.82952 | 11459 ft | 294 kts | 100° |
| 2026-04-25 00:46 | 33.16744 | -116.80530 | 11459 ft | 295 kts | 100° |
| 2026-04-25 00:46 | 33.16153 | -116.75699 | 11461 ft | 295 kts | 100° |
| 2026-04-25 00:47 | 33.15856 | -116.73272 | 11450 ft | 295 kts | 100° |
| 2026-04-25 00:47 | 33.15557 | -116.70849 | 11451 ft | 295 kts | 100° |
| 2026-04-25 00:47 | 33.15260 | -116.68430 | 11489 ft | 294 kts | 100° |
| 2026-04-25 00:47 | 33.14965 | -116.66019 | 11500 ft | 293 kts | 100° |
| 2026-04-25 00:48 | 33.14666 | -116.63608 | 11494 ft | 295 kts | 100° |
| 2026-04-25 00:48 | 33.14405 | -116.61211 | 11476 ft | 295 kts | 94° |
| 2026-04-25 00:48 | 33.14842 | -116.58838 | 11470 ft | 293 kts | 62° |
| 2026-04-25 00:48 | 33.16007 | -116.56901 | 11467 ft | 285 kts | 38° |
| 2026-04-25 00:49 | 33.17572 | -116.55487 | 11487 ft | 281 kts | 30° |
| 2026-04-25 00:49 | 33.19177 | -116.54149 | 11486 ft | 281 kts | 30° |
| 2026-04-25 00:49 | 33.20765 | -116.52780 | 11492 ft | 282 kts | 31° |
| 2026-04-25 00:49 | 33.22353 | -116.51386 | 11492 ft | 283 kts | 31° |
| 2026-04-25 00:50 | 33.23945 | -116.49997 | 11466 ft | 284 kts | 31° |
| 2026-04-25 00:50 | 33.25542 | -116.48583 | 11461 ft | 287 kts | 36° |
| 2026-04-25 00:50 | 33.26827 | -116.46748 | 11448 ft | 291 kts | 58° |
| 2026-04-25 00:50 | 33.27619 | -116.44512 | 11459 ft | 293 kts | 69° |
| 2026-04-25 00:51 | 33.28271 | -116.42198 | 11463 ft | 295 kts | 70° |
| 2026-04-25 00:51 | 33.28897 | -116.39894 | 11461 ft | 295 kts | 71° |
| 2026-04-25 00:51 | 33.29527 | -116.37558 | 11436 ft | 295 kts | 71° |
| 2026-04-25 00:51 | 33.30153 | -116.35218 | 11434 ft | 295 kts | 71° |
| 2026-04-25 00:52 | 33.30777 | -116.32879 | 11434 ft | 295 kts | 71° |
| 2026-04-25 00:52 | 33.31402 | -116.30541 | 11426 ft | 295 kts | 71° |
| 2026-04-25 00:52 | 33.32033 | -116.28206 | 11351 ft | 296 kts | 71° |
| 2026-04-25 00:52 | 33.32668 | -116.25843 | 11025 ft | 302 kts | 71° |
| 2026-04-25 00:53 | 33.33312 | -116.23444 | 10545 ft | 301 kts | 71° |
| 2026-04-25 00:53 | 33.33947 | -116.21084 | 10077 ft | 295 kts | 71° |
| 2026-04-25 00:53 | 33.34581 | -116.18759 | 9596 ft | 293 kts | 71° |
| 2026-04-25 00:53 | 33.35211 | -116.16452 | 9073 ft | 290 kts | 71° |
| 2026-04-25 00:54 | 33.35828 | -116.14192 | 8557 ft | 283 kts | 71° |
| 2026-04-25 00:54 | 33.36448 | -116.11944 | 8057 ft | 287 kts | 71° |
| 2026-04-25 00:54 | 33.37063 | -116.09689 | 7567 ft | 280 kts | 71° |
| 2026-04-25 00:54 | 33.37651 | -116.07521 | 7081 ft | 278 kts | 70° |
| 2026-04-25 00:55 | 33.38243 | -116.05302 | 6598 ft | 277 kts | 71° |
| 2026-04-25 00:55 | 33.38806 | -116.03145 | 6128 ft | 269 kts | 70° |
| 2026-04-25 00:55 | 33.39368 | -116.00991 | 5629 ft | 272 kts | 70° |
| 2026-04-25 00:55 | 33.39925 | -115.98830 | 5128 ft | 269 kts | 71° |
| 2026-04-25 00:56 | 33.40476 | -115.96711 | 4637 ft | 267 kts | 70° |
| 2026-04-25 00:56 | 33.41102 | -115.94612 | 4139 ft | 266 kts | 60° |
| 2026-04-25 00:56 | 33.42426 | -115.93118 | 3620 ft | 264 kts | 24° |
| 2026-04-25 00:56 | 33.44196 | -115.92806 | 3111 ft | 257 kts | 346° |
| 2026-04-25 00:57 | 33.45733 | -115.93698 | 2605 ft | 240 kts | 317° |
| 2026-04-25 00:57 | 33.46946 | -115.95005 | 2151 ft | 225 kts | 311° |
| 2026-04-25 00:57 | 33.47992 | -115.96191 | 1673 ft | 194 kts | 310° |
| 2026-04-25 00:57 | 33.48880 | -115.97336 | 1487 ft | 184 kts | 304° |
| 2026-04-25 00:58 | 33.49725 | -115.98565 | 1498 ft | 200 kts | 304° |
| 2026-04-25 00:58 | 33.50630 | -115.99893 | 1508 ft | 213 kts | 303° |
| 2026-04-25 00:58 | 33.51549 | -116.01270 | 1491 ft | 198 kts | 299° |
| 2026-04-25 00:58 | 33.51886 | -116.02696 | 1478 ft | 174 kts | 266° |
| 2026-04-25 00:59 | 33.51931 | -116.04096 | 1476 ft | 164 kts | 276° |
| 2026-04-25 00:59 | 33.52150 | -116.05383 | 1477 ft | 149 kts | 275° |
| 2026-04-25 00:59 | 33.52306 | -116.06570 | 1472 ft | 141 kts | 274° |
| 2026-04-25 00:59 | 33.52438 | -116.07749 | 1483 ft | 144 kts | 274° |
| 2026-04-25 01:00 | 33.52519 | -116.08533 | 1475 ft | 140 kts | 274° |
| 2026-04-25 01:00 | 33.52640 | -116.09692 | 1482 ft | 141 kts | 274° |
| 2026-04-25 01:00 | 33.52760 | -116.10851 | 1499 ft | 134 kts | 273° |
| 2026-04-25 01:00 | 33.52872 | -116.11870 | 1494 ft | 115 kts | 272° |
| 2026-04-25 01:01 | 33.52968 | -116.12758 | 1468 ft | 99 kts | 271° |
| 2026-04-25 01:01 | 33.53084 | -116.13516 | 1472 ft | 91 kts | 279° |
| 2026-04-25 01:01 | 33.53355 | -116.14201 | 1479 ft | 89 kts | 292° |
| 2026-04-25 01:01 | 33.53743 | -116.14780 | 1436 ft | 89 kts | 301° |
| 2026-04-25 01:02 | 33.54293 | -116.15282 | 1327 ft | 112 kts | 319° |
| 2026-04-25 01:02 | 33.55101 | -116.15628 | 1169 ft | 134 kts | 343° |
| 2026-04-25 01:02 | 33.56011 | -116.15618 | 1036 ft | 131 kts | 359° |
| 2026-04-25 01:02 | 33.56918 | -116.15548 | 845 ft | 134 kts | 351° |
| 2026-04-25 01:03 | 33.57803 | -116.15549 | 579 ft | 119 kts | 351° |
| 2026-04-25 01:03 | 33.58606 | -116.15563 | 411 ft | 115 kts | 348° |
| 2026-04-25 01:03 | 33.59399 | -116.15643 | 300 ft | 113 kts | 349° |
| 2026-04-25 01:03 | 33.60162 | -116.15632 | 140 ft | 105 kts | 351° |
| 2026-04-25 01:04 | 33.60860 | -116.15625 | 29 ft | 98 kts | 349° |
| 2026-04-25 01:04 | 33.61537 | -116.15639 | -89 ft | 99 kts | 352° |
| 2026-04-25 01:04 | 33.62180 | -116.15640 | -123 ft | 79 kts | 355° |
| 2026-04-25 01:04 | 33.62653 | -116.15645 | -126 ft | 61 kts | 0° |
| 2026-04-25 01:05 | 33.62914 | -116.15646 | -122 ft | 8 kts | 350° |
| 2026-04-25 01:05 | 33.62961 | -116.15683 | -125 ft | 13 kts | 292° |
| 2026-04-25 01:05 | 33.62987 | -116.15767 | -124 ft | 13 kts | 335° |
| 2026-04-25 01:05 | 33.63110 | -116.15773 | -123 ft | 19 kts | 353° |
| 2026-04-25 01:06 | 33.63249 | -116.15775 | -124 ft | 24 kts | 356° |
| 2026-04-25 01:06 | 33.63327 | -116.15775 | -121 ft | 0 kts | 2° |
| 2026-04-25 01:06 | 33.63362 | -116.15774 | -119 ft | 11 kts | 0° |
| 2026-04-25 01:06 | 33.63415 | -116.15818 | -117 ft | 12 kts | 269° |
| 2026-04-25 01:07 | 33.63414 | -116.15951 | -119 ft | 19 kts | 272° |
| 2026-04-25 01:07 | 33.63414 | -116.16110 | -120 ft | 16 kts | 269° |
| 2026-04-25 01:07 | 33.63413 | -116.16171 | -119 ft | 0 kts | 275° |
| 2026-04-25 01:07 | 33.63415 | -116.16178 | -119 ft | 5 kts | 292° |
| 2026-04-25 01:08 | 33.63459 | -116.16208 | -119 ft | 8 kts | 344° |
| 2026-04-25 01:08 | 33.63486 | -116.16238 | -119 ft | 3 kts | 274° |
| 2026-04-25 01:08 | 33.63486 | -116.16259 | -119 ft | 0 kts | 272° |